sensor_id;sensor_type;location;lat;lon;timestamp;P1;durP1;ratioP1;P2;durP2;ratioP2
44270;SDS011;29963;44.594;11.368;2023-06-10T00:00:41;19.23;;;17.30;;
44270;SDS011;29963;44.594;11.368;2023-06-10T00:03:07;19.13;;;17.02;;
44270;SDS011;29963;44.594;11.368;2023-06-10T00:05:33;18.42;;;16.40;;
44270;SDS011;29963;44.594;11.368;2023-06-10T00:08:00;18.88;;;17.00;;
44270;SDS011;29963;44.594;11.368;2023-06-10T00:10:32;21.42;;;17.20;;
44270;SDS011;29963;44.594;11.368;2023-06-10T00:12:58;19.48;;;16.17;;
44270;SDS011;29963;44.594;11.368;2023-06-10T00:15:24;18.33;;;16.45;;
44270;SDS011;29963;44.594;11.368;2023-06-10T00:17:50;19.27;;;17.25;;
44270;SDS011;29963;44.594;11.368;2023-06-10T00:20:19;19.20;;;17.13;;
44270;SDS011;29963;44.594;11.368;2023-06-10T00:22:48;19.20;;;17.23;;
44270;SDS011;29963;44.594;11.368;2023-06-10T00:25:17;19.45;;;17.63;;
44270;SDS011;29963;44.594;11.368;2023-06-10T00:27:43;18.45;;;16.48;;
44270;SDS011;29963;44.594;11.368;2023-06-10T00:30:11;18.73;;;16.75;;
44270;SDS011;29963;44.594;11.368;2023-06-10T00:32:38;28.58;;;16.88;;
44270;SDS011;29963;44.594;11.368;2023-06-10T00:35:04;17.55;;;15.73;;
44270;SDS011;29963;44.594;11.368;2023-06-10T00:37:30;20.77;;;16.88;;
44270;SDS011;29963;44.594;11.368;2023-06-10T00:39:57;22.60;;;19.35;;
44270;SDS011;29963;44.594;11.368;2023-06-10T00:42:22;25.30;;;20.23;;
44270;SDS011;29963;44.594;11.368;2023-06-10T00:44:50;20.83;;;18.73;;
44270;SDS011;29963;44.594;11.368;2023-06-10T00:47:16;22.98;;;18.50;;
44270;SDS011;29963;44.594;11.368;2023-06-10T00:49:42;18.80;;;16.52;;
44270;SDS011;29963;44.594;11.368;2023-06-10T00:52:08;19.63;;;16.45;;
44270;SDS011;29963;44.594;11.368;2023-06-10T00:54:35;18.15;;;16.25;;
44270;SDS011;29963;44.594;11.368;2023-06-10T00:57:02;19.92;;;17.77;;
44270;SDS011;29963;44.594;11.368;2023-06-10T00:59:29;18.95;;;16.90;;
44270;SDS011;29963;44.594;11.368;2023-06-10T01:01:55;17.95;;;16.00;;
44270;SDS011;29963;44.594;11.368;2023-06-10T01:04:22;17.40;;;15.30;;
44270;SDS011;29963;44.594;11.368;2023-06-10T01:10:24;11.30;;;10.10;;
44270;SDS011;29963;44.594;11.368;2023-06-10T01:12:34;12.88;;;7.43;;
44270;SDS011;29963;44.594;11.368;2023-06-10T01:15:06;7.25;;;5.68;;
44270;SDS011;29963;44.594;11.368;2023-06-10T01:17:33;6.30;;;4.53;;
44270;SDS011;29963;44.594;11.368;2023-06-10T01:20:02;2.67;;;2.47;;
44270;SDS011;29963;44.594;11.368;2023-06-10T01:22:28;6.07;;;2.53;;
44270;SDS011;29963;44.594;11.368;2023-06-10T01:24:57;3.30;;;1.90;;
44270;SDS011;29963;44.594;11.368;2023-06-10T01:27:24;2.95;;;1.98;;
44270;SDS011;29963;44.594;11.368;2023-06-10T01:29:55;3.28;;;1.85;;
44270;SDS011;29963;44.594;11.368;2023-06-10T01:32:37;3.20;;;2.22;;
44270;SDS011;29963;44.594;11.368;2023-06-10T01:35:05;3.25;;;2.72;;
44270;SDS011;29963;44.594;11.368;2023-06-10T01:37:33;4.75;;;1.70;;
44270;SDS011;29963;44.594;11.368;2023-06-10T01:39:59;2.75;;;2.20;;
44270;SDS011;29963;44.594;11.368;2023-06-10T01:42:28;3.92;;;2.35;;
44270;SDS011;29963;44.594;11.368;2023-06-10T01:44:54;2.80;;;2.15;;
44270;SDS011;29963;44.594;11.368;2023-06-10T01:47:20;3.08;;;2.13;;
44270;SDS011;29963;44.594;11.368;2023-06-10T01:49:46;2.00;;;1.60;;
44270;SDS011;29963;44.594;11.368;2023-06-10T01:52:11;1.52;;;1.42;;
44270;SDS011;29963;44.594;11.368;2023-06-10T01:54:37;2.17;;;1.88;;
44270;SDS011;29963;44.594;11.368;2023-06-10T01:57:03;2.40;;;1.60;;
44270;SDS011;29963;44.594;11.368;2023-06-10T01:59:31;2.20;;;2.00;;
44270;SDS011;29963;44.594;11.368;2023-06-10T02:01:56;2.45;;;2.17;;
44270;SDS011;29963;44.594;11.368;2023-06-10T02:04:22;2.35;;;2.15;;
44270;SDS011;29963;44.594;11.368;2023-06-10T02:06:47;6.10;;;2.97;;
44270;SDS011;29963;44.594;11.368;2023-06-10T02:09:13;3.00;;;2.72;;
44270;SDS011;29963;44.594;11.368;2023-06-10T02:11:39;3.17;;;2.45;;
44270;SDS011;29963;44.594;11.368;2023-06-10T02:14:05;6.68;;;2.45;;
44270;SDS011;29963;44.594;11.368;2023-06-10T02:16:30;2.28;;;2.08;;
44270;SDS011;29963;44.594;11.368;2023-06-10T02:18:56;4.65;;;2.85;;
44270;SDS011;29963;44.594;11.368;2023-06-10T02:21:22;2.92;;;1.95;;
44270;SDS011;29963;44.594;11.368;2023-06-10T02:23:48;3.28;;;2.92;;
44270;SDS011;29963;44.594;11.368;2023-06-10T02:26:14;5.72;;;3.10;;
44270;SDS011;29963;44.594;11.368;2023-06-10T02:28:42;3.22;;;2.92;;
44270;SDS011;29963;44.594;11.368;2023-06-10T02:31:08;5.30;;;2.78;;
44270;SDS011;29963;44.594;11.368;2023-06-10T02:33:34;4.95;;;2.47;;
44270;SDS011;29963;44.594;11.368;2023-06-10T02:35:59;3.83;;;2.50;;
44270;SDS011;29963;44.594;11.368;2023-06-10T02:38:25;3.13;;;2.78;;
44270;SDS011;29963;44.594;11.368;2023-06-10T02:40:51;10.15;;;3.17;;
44270;SDS011;29963;44.594;11.368;2023-06-10T02:43:16;3.35;;;3.03;;
44270;SDS011;29963;44.594;11.368;2023-06-10T02:45:42;3.67;;;3.40;;
44270;SDS011;29963;44.594;11.368;2023-06-10T02:48:08;6.97;;;3.72;;
44270;SDS011;29963;44.594;11.368;2023-06-10T02:50:33;5.38;;;3.55;;
44270;SDS011;29963;44.594;11.368;2023-06-10T02:52:59;4.72;;;3.30;;
44270;SDS011;29963;44.594;11.368;2023-06-10T02:55:25;5.40;;;3.33;;
44270;SDS011;29963;44.594;11.368;2023-06-10T02:57:51;6.95;;;3.00;;
44270;SDS011;29963;44.594;11.368;2023-06-10T03:00:19;3.75;;;2.95;;
44270;SDS011;29963;44.594;11.368;2023-06-10T03:02:45;3.90;;;3.47;;
44270;SDS011;29963;44.594;11.368;2023-06-10T03:05:10;4.45;;;3.45;;
44270;SDS011;29963;44.594;11.368;2023-06-10T03:07:38;5.50;;;3.67;;
44270;SDS011;29963;44.594;11.368;2023-06-10T03:10:04;4.45;;;3.78;;
44270;SDS011;29963;44.594;11.368;2023-06-10T03:12:31;5.38;;;4.35;;
44270;SDS011;29963;44.594;11.368;2023-06-10T03:14:57;4.90;;;4.05;;
44270;SDS011;29963;44.594;11.368;2023-06-10T03:17:22;5.57;;;4.60;;
44270;SDS011;29963;44.594;11.368;2023-06-10T03:19:48;4.70;;;4.20;;
44270;SDS011;29963;44.594;11.368;2023-06-10T03:22:14;5.70;;;5.07;;
44270;SDS011;29963;44.594;11.368;2023-06-10T03:24:41;4.80;;;4.25;;
44270;SDS011;29963;44.594;11.368;2023-06-10T03:27:09;6.13;;;5.38;;
44270;SDS011;29963;44.594;11.368;2023-06-10T03:29:36;6.57;;;5.90;;
44270;SDS011;29963;44.594;11.368;2023-06-10T03:32:02;8.13;;;7.38;;
44270;SDS011;29963;44.594;11.368;2023-06-10T03:34:28;9.23;;;7.15;;
44270;SDS011;29963;44.594;11.368;2023-06-10T03:36:57;9.02;;;8.13;;
44270;SDS011;29963;44.594;11.368;2023-06-10T03:39:23;10.10;;;8.45;;
44270;SDS011;29963;44.594;11.368;2023-06-10T03:41:52;9.00;;;8.20;;
44270;SDS011;29963;44.594;11.368;2023-06-10T03:44:17;10.45;;;7.72;;
44270;SDS011;29963;44.594;11.368;2023-06-10T03:46:43;10.55;;;9.45;;
44270;SDS011;29963;44.594;11.368;2023-06-10T03:49:08;8.85;;;7.95;;
44270;SDS011;29963;44.594;11.368;2023-06-10T03:51:35;9.77;;;8.50;;
44270;SDS011;29963;44.594;11.368;2023-06-10T03:54:01;10.48;;;8.43;;
44270;SDS011;29963;44.594;11.368;2023-06-10T03:56:26;10.30;;;7.97;;
44270;SDS011;29963;44.594;11.368;2023-06-10T03:58:53;11.63;;;9.73;;
44270;SDS011;29963;44.594;11.368;2023-06-10T04:01:20;14.75;;;13.10;;
44270;SDS011;29963;44.594;11.368;2023-06-10T04:03:46;14.23;;;12.70;;
44270;SDS011;29963;44.594;11.368;2023-06-10T04:06:13;13.70;;;12.25;;
44270;SDS011;29963;44.594;11.368;2023-06-10T04:08:39;11.98;;;10.80;;
44270;SDS011;29963;44.594;11.368;2023-06-10T04:11:05;13.55;;;12.15;;
44270;SDS011;29963;44.594;11.368;2023-06-10T04:13:31;18.15;;;16.23;;
44270;SDS011;29963;44.594;11.368;2023-06-10T04:15:56;16.88;;;15.20;;
44270;SDS011;29963;44.594;11.368;2023-06-10T04:18:22;16.85;;;15.15;;
44270;SDS011;29963;44.594;11.368;2023-06-10T04:20:48;17.85;;;16.00;;
44270;SDS011;29963;44.594;11.368;2023-06-10T04:23:13;17.50;;;15.75;;
44270;SDS011;29963;44.594;11.368;2023-06-10T04:25:39;17.90;;;16.02;;
44270;SDS011;29963;44.594;11.368;2023-06-10T04:28:05;18.90;;;16.98;;
44270;SDS011;29963;44.594;11.368;2023-06-10T04:30:30;20.35;;;18.35;;
44270;SDS011;29963;44.594;11.368;2023-06-10T04:32:56;18.95;;;16.98;;
44270;SDS011;29963;44.594;11.368;2023-06-10T04:35:25;20.85;;;17.75;;
44270;SDS011;29963;44.594;11.368;2023-06-10T04:37:53;20.23;;;17.80;;
44270;SDS011;29963;44.594;11.368;2023-06-10T04:40:19;21.63;;;18.73;;
44270;SDS011;29963;44.594;11.368;2023-06-10T04:42:48;24.17;;;18.73;;
44270;SDS011;29963;44.594;11.368;2023-06-10T04:45:13;20.05;;;17.95;;
44270;SDS011;29963;44.594;11.368;2023-06-10T04:47:40;23.13;;;19.75;;
44270;SDS011;29963;44.594;11.368;2023-06-10T04:50:06;20.67;;;18.40;;
44270;SDS011;29963;44.594;11.368;2023-06-10T04:52:31;21.00;;;18.70;;
44270;SDS011;29963;44.594;11.368;2023-06-10T04:55:00;23.15;;;19.20;;
44270;SDS011;29963;44.594;11.368;2023-06-10T04:57:26;25.95;;;20.35;;
44270;SDS011;29963;44.594;11.368;2023-06-10T04:59:52;26.27;;;21.27;;
44270;SDS011;29963;44.594;11.368;2023-06-10T05:02:18;22.92;;;20.52;;
44270;SDS011;29963;44.594;11.368;2023-06-10T05:04:44;25.95;;;20.25;;
44270;SDS011;29963;44.594;11.368;2023-06-10T05:07:09;21.40;;;19.27;;
44270;SDS011;29963;44.594;11.368;2023-06-10T05:09:35;25.38;;;19.52;;
44270;SDS011;29963;44.594;11.368;2023-06-10T05:12:02;23.33;;;20.88;;
44270;SDS011;29963;44.594;11.368;2023-06-10T05:14:28;23.42;;;20.38;;
44270;SDS011;29963;44.594;11.368;2023-06-10T05:16:53;21.25;;;19.05;;
44270;SDS011;29963;44.594;11.368;2023-06-10T05:19:22;24.02;;;21.27;;
44270;SDS011;29963;44.594;11.368;2023-06-10T05:21:47;25.48;;;22.48;;
44270;SDS011;29963;44.594;11.368;2023-06-10T05:24:13;27.30;;;22.35;;
44270;SDS011;29963;44.594;11.368;2023-06-10T05:26:38;24.38;;;21.88;;
44270;SDS011;29963;44.594;11.368;2023-06-10T05:29:06;22.85;;;20.63;;
44270;SDS011;29963;44.594;11.368;2023-06-10T05:31:33;25.52;;;22.77;;
44270;SDS011;29963;44.594;11.368;2023-06-10T05:33:58;25.88;;;23.20;;
44270;SDS011;29963;44.594;11.368;2023-06-10T05:36:24;23.40;;;21.15;;
44270;SDS011;29963;44.594;11.368;2023-06-10T05:38:53;26.27;;;23.50;;
44270;SDS011;29963;44.594;11.368;2023-06-10T05:41:18;25.75;;;22.38;;
44270;SDS011;29963;44.594;11.368;2023-06-10T05:43:45;24.63;;;21.45;;
44270;SDS011;29963;44.594;11.368;2023-06-10T05:46:10;25.77;;;23.27;;
44270;SDS011;29963;44.594;11.368;2023-06-10T05:48:36;26.58;;;23.80;;
44270;SDS011;29963;44.594;11.368;2023-06-10T05:51:01;26.40;;;22.42;;
44270;SDS011;29963;44.594;11.368;2023-06-10T05:53:27;25.98;;;22.38;;
44270;SDS011;29963;44.594;11.368;2023-06-10T05:55:53;23.35;;;20.95;;
44270;SDS011;29963;44.594;11.368;2023-06-10T05:58:22;25.05;;;22.45;;
44270;SDS011;29963;44.594;11.368;2023-06-10T06:00:48;27.25;;;22.48;;
44270;SDS011;29963;44.594;11.368;2023-06-10T06:03:14;26.27;;;23.63;;
44270;SDS011;29963;44.594;11.368;2023-06-10T06:05:39;21.85;;;19.58;;
44270;SDS011;29963;44.594;11.368;2023-06-10T06:08:05;30.23;;;22.65;;
44270;SDS011;29963;44.594;11.368;2023-06-10T06:10:31;23.25;;;20.98;;
44270;SDS011;29963;44.594;11.368;2023-06-10T06:12:57;23.83;;;20.92;;
44270;SDS011;29963;44.594;11.368;2023-06-10T06:15:23;23.98;;;21.17;;
44270;SDS011;29963;44.594;11.368;2023-06-10T06:17:48;21.75;;;19.60;;
44270;SDS011;29963;44.594;11.368;2023-06-10T06:20:17;34.78;;;19.20;;
44270;SDS011;29963;44.594;11.368;2023-06-10T06:22:43;22.33;;;20.23;;
44270;SDS011;29963;44.594;11.368;2023-06-10T06:25:09;21.80;;;19.05;;
44270;SDS011;29963;44.594;11.368;2023-06-10T06:27:34;21.80;;;19.65;;
44270;SDS011;29963;44.594;11.368;2023-06-10T06:30:00;24.45;;;19.95;;
44270;SDS011;29963;44.594;11.368;2023-06-10T06:32:26;21.50;;;19.23;;
44270;SDS011;29963;44.594;11.368;2023-06-10T06:34:52;21.58;;;19.20;;
44270;SDS011;29963;44.594;11.368;2023-06-10T06:37:20;19.58;;;17.67;;
44270;SDS011;29963;44.594;11.368;2023-06-10T06:39:47;19.40;;;17.33;;
44270;SDS011;29963;44.594;11.368;2023-06-10T06:42:15;18.45;;;15.48;;
44270;SDS011;29963;44.594;11.368;2023-06-10T06:44:41;26.02;;;20.83;;
44270;SDS011;29963;44.594;11.368;2023-06-10T06:47:07;19.30;;;17.30;;
44270;SDS011;29963;44.594;11.368;2023-06-10T06:49:32;20.05;;;17.85;;
44270;SDS011;29963;44.594;11.368;2023-06-10T06:51:58;22.90;;;19.45;;
44270;SDS011;29963;44.594;11.368;2023-06-10T06:54:24;20.35;;;18.13;;
44270;SDS011;29963;44.594;11.368;2023-06-10T06:56:50;21.05;;;18.83;;
44270;SDS011;29963;44.594;11.368;2023-06-10T06:59:15;23.38;;;19.55;;
44270;SDS011;29963;44.594;11.368;2023-06-10T07:01:44;18.33;;;16.20;;
44270;SDS011;29963;44.594;11.368;2023-06-10T07:04:09;20.75;;;18.45;;
44270;SDS011;29963;44.594;11.368;2023-06-10T07:06:35;18.58;;;16.58;;
44270;SDS011;29963;44.594;11.368;2023-06-10T07:09:01;19.73;;;17.45;;
44270;SDS011;29963;44.594;11.368;2023-06-10T07:11:30;17.90;;;15.77;;
44270;SDS011;29963;44.594;11.368;2023-06-10T07:13:55;24.27;;;19.42;;
44270;SDS011;29963;44.594;11.368;2023-06-10T07:16:21;17.60;;;15.80;;
44270;SDS011;29963;44.594;11.368;2023-06-10T07:18:47;17.27;;;15.45;;
44270;SDS011;29963;44.594;11.368;2023-06-10T07:21:13;16.75;;;13.05;;
44270;SDS011;29963;44.594;11.368;2023-06-10T07:23:41;18.05;;;16.27;;
44270;SDS011;29963;44.594;11.368;2023-06-10T07:26:07;16.27;;;14.68;;
44270;SDS011;29963;44.594;11.368;2023-06-10T07:28:36;15.38;;;13.80;;
44270;SDS011;29963;44.594;11.368;2023-06-10T07:31:02;15.13;;;13.52;;
44270;SDS011;29963;44.594;11.368;2023-06-10T07:33:28;14.05;;;12.60;;
44270;SDS011;29963;44.594;11.368;2023-06-10T07:35:53;13.60;;;10.70;;
44270;SDS011;29963;44.594;11.368;2023-06-10T07:38:19;17.63;;;13.45;;
44270;SDS011;29963;44.594;11.368;2023-06-10T07:40:45;16.88;;;13.13;;
44270;SDS011;29963;44.594;11.368;2023-06-10T07:43:11;13.27;;;11.77;;
44270;SDS011;29963;44.594;11.368;2023-06-10T07:45:36;11.63;;;10.43;;
44270;SDS011;29963;44.594;11.368;2023-06-10T07:48:05;16.70;;;11.27;;
44270;SDS011;29963;44.594;11.368;2023-06-10T07:50:31;14.88;;;13.25;;
44270;SDS011;29963;44.594;11.368;2023-06-10T07:52:56;11.63;;;10.48;;
44270;SDS011;29963;44.594;11.368;2023-06-10T07:55:22;12.85;;;11.13;;
44270;SDS011;29963;44.594;11.368;2023-06-10T07:57:48;12.38;;;11.07;;
44270;SDS011;29963;44.594;11.368;2023-06-10T08:00:14;13.05;;;9.77;;
44270;SDS011;29963;44.594;11.368;2023-06-10T08:02:40;15.77;;;11.80;;
44270;SDS011;29963;44.594;11.368;2023-06-10T08:05:06;11.70;;;10.40;;
44270;SDS011;29963;44.594;11.368;2023-06-10T08:07:32;14.57;;;13.05;;
44270;SDS011;29963;44.594;11.368;2023-06-10T08:09:57;12.88;;;11.43;;
44270;SDS011;29963;44.594;11.368;2023-06-10T08:12:23;13.93;;;12.63;;
44270;SDS011;29963;44.594;11.368;2023-06-10T08:14:49;14.82;;;13.13;;
44270;SDS011;29963;44.594;11.368;2023-06-10T08:17:14;16.85;;;12.88;;
44270;SDS011;29963;44.594;11.368;2023-06-10T08:19:40;13.93;;;12.02;;
44270;SDS011;29963;44.594;11.368;2023-06-10T08:22:05;15.05;;;13.55;;
44270;SDS011;29963;44.594;11.368;2023-06-10T08:24:31;15.18;;;13.40;;
44270;SDS011;29963;44.594;11.368;2023-06-10T08:26:57;15.95;;;14.27;;
44270;SDS011;29963;44.594;11.368;2023-06-10T08:29:23;14.65;;;13.10;;
44270;SDS011;29963;44.594;11.368;2023-06-10T08:31:50;16.80;;;13.60;;
44270;SDS011;29963;44.594;11.368;2023-06-10T08:34:16;15.35;;;12.82;;
44270;SDS011;29963;44.594;11.368;2023-06-10T08:36:42;15.07;;;13.68;;
44270;SDS011;29963;44.594;11.368;2023-06-10T08:39:09;18.52;;;13.98;;
44270;SDS011;29963;44.594;11.368;2023-06-10T08:41:35;14.90;;;13.38;;
44270;SDS011;29963;44.594;11.368;2023-06-10T08:46:47;13.65;;;12.02;;
44270;SDS011;29963;44.594;11.368;2023-06-10T08:49:18;16.75;;;13.48;;
44270;SDS011;29963;44.594;11.368;2023-06-10T08:51:50;12.07;;;10.77;;
44270;SDS011;29963;44.594;11.368;2023-06-10T08:54:23;13.13;;;11.68;;
44270;SDS011;29963;44.594;11.368;2023-06-10T08:56:54;10.77;;;9.70;;
44270;SDS011;29963;44.594;11.368;2023-06-10T08:59:22;10.65;;;9.48;;
44270;SDS011;29963;44.594;11.368;2023-06-10T09:01:50;11.77;;;10.57;;
44270;SDS011;29963;44.594;11.368;2023-06-10T09:04:16;13.13;;;10.52;;
44270;SDS011;29963;44.594;11.368;2023-06-10T09:06:43;11.85;;;10.75;;
44270;SDS011;29963;44.594;11.368;2023-06-10T09:09:09;11.15;;;9.35;;
44270;SDS011;29963;44.594;11.368;2023-06-10T09:11:37;13.18;;;10.85;;
44270;SDS011;29963;44.594;11.368;2023-06-10T09:14:03;9.60;;;8.60;;
44270;SDS011;29963;44.594;11.368;2023-06-10T09:16:29;8.65;;;7.75;;
44270;SDS011;29963;44.594;11.368;2023-06-10T09:18:54;9.85;;;8.82;;
44270;SDS011;29963;44.594;11.368;2023-06-10T09:21:24;10.80;;;9.48;;
44270;SDS011;29963;44.594;11.368;2023-06-10T09:23:50;10.15;;;9.07;;
44270;SDS011;29963;44.594;11.368;2023-06-10T09:26:17;11.95;;;10.35;;
44270;SDS011;29963;44.594;11.368;2023-06-10T09:28:44;11.18;;;9.80;;
44270;SDS011;29963;44.594;11.368;2023-06-10T09:31:13;10.68;;;8.73;;
44270;SDS011;29963;44.594;11.368;2023-06-10T09:33:39;13.65;;;10.57;;
44270;SDS011;29963;44.594;11.368;2023-06-10T09:36:05;9.75;;;8.75;;
44270;SDS011;29963;44.594;11.368;2023-06-10T09:38:33;8.85;;;7.90;;
44270;SDS011;29963;44.594;11.368;2023-06-10T09:41:00;10.07;;;9.13;;
44270;SDS011;29963;44.594;11.368;2023-06-10T09:43:47;7.60;;;6.85;;
44270;SDS011;29963;44.594;11.368;2023-06-10T09:46:14;10.05;;;8.70;;
44270;SDS011;29963;44.594;11.368;2023-06-10T09:48:46;10.13;;;7.60;;
44270;SDS011;29963;44.594;11.368;2023-06-10T09:51:13;8.07;;;6.38;;
44270;SDS011;29963;44.594;11.368;2023-06-10T09:53:39;8.20;;;7.07;;
44270;SDS011;29963;44.594;11.368;2023-06-10T09:56:05;7.47;;;6.72;;
44270;SDS011;29963;44.594;11.368;2023-06-10T09:58:38;12.52;;;6.35;;
44270;SDS011;29963;44.594;11.368;2023-06-10T10:01:10;9.93;;;6.80;;
44270;SDS011;29963;44.594;11.368;2023-06-10T10:03:43;7.47;;;6.78;;
44270;SDS011;29963;44.594;11.368;2023-06-10T10:06:11;7.90;;;7.10;;
44270;SDS011;29963;44.594;11.368;2023-06-10T10:08:37;7.68;;;6.95;;
44270;SDS011;29963;44.594;11.368;2023-06-10T10:11:03;7.43;;;6.72;;
44270;SDS011;29963;44.594;11.368;2023-06-10T10:13:28;7.60;;;6.85;;
44270;SDS011;29963;44.594;11.368;2023-06-10T10:15:56;6.45;;;5.82;;
44270;SDS011;29963;44.594;11.368;2023-06-10T10:18:26;9.45;;;6.03;;
44270;SDS011;29963;44.594;11.368;2023-06-10T10:20:55;7.68;;;6.05;;
44270;SDS011;29963;44.594;11.368;2023-06-10T10:23:26;10.90;;;7.65;;
44270;SDS011;29963;44.594;11.368;2023-06-10T10:26:00;7.68;;;6.63;;
44270;SDS011;29963;44.594;11.368;2023-06-10T10:28:37;6.00;;;5.20;;
44270;SDS011;29963;44.594;11.368;2023-06-10T10:31:16;7.13;;;6.30;;
44270;SDS011;29963;44.594;11.368;2023-06-10T10:36:26;7.47;;;5.47;;
44270;SDS011;29963;44.594;11.368;2023-06-10T10:38:52;11.85;;;5.97;;
44270;SDS011;29963;44.594;11.368;2023-06-10T10:41:19;6.95;;;5.45;;
44270;SDS011;29963;44.594;11.368;2023-06-10T10:43:46;6.43;;;5.18;;
44270;SDS011;29963;44.594;11.368;2023-06-10T10:46:13;9.18;;;6.38;;
44270;SDS011;29963;44.594;11.368;2023-06-10T10:48:41;8.93;;;7.63;;
44270;SDS011;29963;44.594;11.368;2023-06-10T10:51:10;7.75;;;5.05;;
44270;SDS011;29963;44.594;11.368;2023-06-10T10:53:39;8.15;;;6.75;;
44270;SDS011;29963;44.594;11.368;2023-06-10T10:58:30;6.22;;;4.97;;
44270;SDS011;29963;44.594;11.368;2023-06-10T11:00:57;7.63;;;5.45;;
44270;SDS011;29963;44.594;11.368;2023-06-10T11:03:27;6.90;;;5.15;;
44270;SDS011;29963;44.594;11.368;2023-06-10T11:05:56;6.63;;;3.95;;
44270;SDS011;29963;44.594;11.368;2023-06-10T11:10:57;6.47;;;4.20;;
44270;SDS011;29963;44.594;11.368;2023-06-10T11:13:23;8.57;;;4.65;;
44270;SDS011;29963;44.594;11.368;2023-06-10T11:15:51;4.47;;;4.07;;
44270;SDS011;29963;44.594;11.368;2023-06-10T11:26:13;5.35;;;3.28;;
44270;SDS011;29963;44.594;11.368;2023-06-10T11:28:42;8.45;;;4.60;;
44270;SDS011;29963;44.594;11.368;2023-06-10T11:31:20;4.65;;;4.18;;
44270;SDS011;29963;44.594;11.368;2023-06-10T11:33:52;4.65;;;4.05;;
44270;SDS011;29963;44.594;11.368;2023-06-10T11:36:19;8.30;;;4.38;;
44270;SDS011;29963;44.594;11.368;2023-06-10T11:38:45;3.55;;;2.80;;
44270;SDS011;29963;44.594;11.368;2023-06-10T11:41:11;3.63;;;2.88;;
44270;SDS011;29963;44.594;11.368;2023-06-10T11:43:40;3.80;;;2.65;;
44270;SDS011;29963;44.594;11.368;2023-06-10T11:46:09;3.90;;;3.45;;
44270;SDS011;29963;44.594;11.368;2023-06-10T11:48:35;5.50;;;2.83;;
44270;SDS011;29963;44.594;11.368;2023-06-10T11:51:00;3.85;;;2.33;;
44270;SDS011;29963;44.594;11.368;2023-06-10T11:53:31;2.85;;;2.30;;
44270;SDS011;29963;44.594;11.368;2023-06-10T11:55:56;4.20;;;2.60;;
44270;SDS011;29963;44.594;11.368;2023-06-10T11:58:22;2.65;;;1.98;;
44270;SDS011;29963;44.594;11.368;2023-06-10T12:00:48;3.65;;;1.38;;
44270;SDS011;29963;44.594;11.368;2023-06-10T12:03:16;2.38;;;1.63;;
44270;SDS011;29963;44.594;11.368;2023-06-10T12:06:01;3.80;;;1.80;;
44270;SDS011;29963;44.594;11.368;2023-06-10T12:08:29;2.92;;;2.22;;
44270;SDS011;29963;44.594;11.368;2023-06-10T12:10:55;3.03;;;2.05;;
44270;SDS011;29963;44.594;11.368;2023-06-10T12:13:22;1.83;;;1.45;;
44270;SDS011;29963;44.594;11.368;2023-06-10T12:15:49;2.45;;;1.60;;
44270;SDS011;29963;44.594;11.368;2023-06-10T12:18:18;3.20;;;1.67;;
44270;SDS011;29963;44.594;11.368;2023-06-10T12:20:47;2.33;;;1.50;;
44270;SDS011;29963;44.594;11.368;2023-06-10T12:23:14;5.78;;;2.60;;
44270;SDS011;29963;44.594;11.368;2023-06-10T12:25:49;3.20;;;1.90;;
44270;SDS011;29963;44.594;11.368;2023-06-10T12:28:21;3.35;;;2.03;;
44270;SDS011;29963;44.594;11.368;2023-06-10T12:30:47;3.58;;;2.30;;
44270;SDS011;29963;44.594;11.368;2023-06-10T12:33:19;2.88;;;1.80;;
44270;SDS011;29963;44.594;11.368;2023-06-10T12:35:49;1.73;;;1.52;;
44270;SDS011;29963;44.594;11.368;2023-06-10T12:38:22;3.08;;;1.92;;
44270;SDS011;29963;44.594;11.368;2023-06-10T12:41:02;3.20;;;1.77;;
44270;SDS011;29963;44.594;11.368;2023-06-10T12:43:31;4.82;;;2.03;;
44270;SDS011;29963;44.594;11.368;2023-06-10T12:46:08;3.97;;;1.90;;
44270;SDS011;29963;44.594;11.368;2023-06-10T12:48:34;4.53;;;1.92;;
44270;SDS011;29963;44.594;11.368;2023-06-10T12:51:00;3.40;;;1.80;;
44270;SDS011;29963;44.594;11.368;2023-06-10T12:53:26;4.85;;;1.98;;
44270;SDS011;29963;44.594;11.368;2023-06-10T12:55:52;3.00;;;1.85;;
44270;SDS011;29963;44.594;11.368;2023-06-10T12:58:20;3.88;;;3.05;;
44270;SDS011;29963;44.594;11.368;2023-06-10T13:00:47;6.18;;;2.47;;
44270;SDS011;29963;44.594;11.368;2023-06-10T13:03:14;3.50;;;1.73;;
44270;SDS011;29963;44.594;11.368;2023-06-10T13:05:40;3.63;;;1.73;;
44270;SDS011;29963;44.594;11.368;2023-06-10T13:08:06;4.03;;;1.80;;
44270;SDS011;29963;44.594;11.368;2023-06-10T13:10:37;3.97;;;1.80;;
44270;SDS011;29963;44.594;11.368;2023-06-10T13:13:03;6.63;;;1.63;;
44270;SDS011;29963;44.594;11.368;2023-06-10T13:15:31;3.85;;;2.30;;
44270;SDS011;29963;44.594;11.368;2023-06-10T13:18:00;4.68;;;1.98;;
44270;SDS011;29963;44.594;11.368;2023-06-10T13:20:27;4.45;;;1.80;;
44270;SDS011;29963;44.594;11.368;2023-06-10T13:22:52;8.88;;;1.88;;
44270;SDS011;29963;44.594;11.368;2023-06-10T13:25:18;3.00;;;1.73;;
44270;SDS011;29963;44.594;11.368;2023-06-10T13:27:44;2.45;;;1.52;;
44270;SDS011;29963;44.594;11.368;2023-06-10T13:30:09;2.30;;;1.83;;
44270;SDS011;29963;44.594;11.368;2023-06-10T13:32:36;3.33;;;2.33;;
44270;SDS011;29963;44.594;11.368;2023-06-10T13:35:02;3.88;;;2.08;;
44270;SDS011;29963;44.594;11.368;2023-06-10T13:37:28;3.97;;;1.85;;
44270;SDS011;29963;44.594;11.368;2023-06-10T13:39:53;6.93;;;2.10;;
44270;SDS011;29963;44.594;11.368;2023-06-10T13:42:20;2.83;;;1.88;;
44270;SDS011;29963;44.594;11.368;2023-06-10T13:44:48;4.97;;;1.75;;
44270;SDS011;29963;44.594;11.368;2023-06-10T13:47:14;2.33;;;2.03;;
44270;SDS011;29963;44.594;11.368;2023-06-10T13:49:40;4.28;;;1.83;;
44270;SDS011;29963;44.594;11.368;2023-06-10T13:52:06;2.72;;;1.80;;
44270;SDS011;29963;44.594;11.368;2023-06-10T13:54:32;8.95;;;1.63;;
44270;SDS011;29963;44.594;11.368;2023-06-10T13:56:58;5.63;;;1.83;;
44270;SDS011;29963;44.594;11.368;2023-06-10T13:59:25;3.90;;;1.73;;
44270;SDS011;29963;44.594;11.368;2023-06-10T14:01:51;1.80;;;1.63;;
44270;SDS011;29963;44.594;11.368;2023-06-10T14:04:16;4.53;;;2.00;;
44270;SDS011;29963;44.594;11.368;2023-06-10T14:06:42;2.55;;;1.63;;
44270;SDS011;29963;44.594;11.368;2023-06-10T14:09:08;2.60;;;1.60;;
44270;SDS011;29963;44.594;11.368;2023-06-10T14:11:34;2.70;;;1.77;;
44270;SDS011;29963;44.594;11.368;2023-06-10T14:14:00;11.23;;;5.10;;
44270;SDS011;29963;44.594;11.368;2023-06-10T14:16:26;2.97;;;2.58;;
44270;SDS011;29963;44.594;11.368;2023-06-10T14:18:52;4.78;;;2.70;;
44270;SDS011;29963;44.594;11.368;2023-06-10T14:21:17;2.70;;;1.83;;
44270;SDS011;29963;44.594;11.368;2023-06-10T14:23:43;2.97;;;2.15;;
44270;SDS011;29963;44.594;11.368;2023-06-10T14:26:09;7.95;;;2.35;;
44270;SDS011;29963;44.594;11.368;2023-06-10T14:28:35;4.93;;;2.38;;
44270;SDS011;29963;44.594;11.368;2023-06-10T14:31:00;2.97;;;2.50;;
44270;SDS011;29963;44.594;11.368;2023-06-10T14:33:26;4.07;;;2.97;;
44270;SDS011;29963;44.594;11.368;2023-06-10T14:35:52;4.55;;;2.10;;
44270;SDS011;29963;44.594;11.368;2023-06-10T14:38:17;3.80;;;2.08;;
44270;SDS011;29963;44.594;11.368;2023-06-10T14:40:43;3.97;;;2.15;;
44270;SDS011;29963;44.594;11.368;2023-06-10T14:43:09;4.15;;;2.80;;